sensor_id;sensor_type;location;lat;lon;timestamp;P1;durP1;ratioP1;P2;durP2;ratioP2
11998;SDS011;40817;51.520;9.954;2024-01-30T00:02:15;7.13;;;4.50;;
11998;SDS011;40817;51.520;9.954;2024-01-30T00:04:44;7.15;;;4.32;;
11998;SDS011;40817;51.520;9.954;2024-01-30T00:07:11;8.43;;;4.40;;
11998;SDS011;40817;51.520;9.954;2024-01-30T00:09:39;7.72;;;4.40;;
11998;SDS011;40817;51.520;9.954;2024-01-30T00:12:06;8.65;;;4.90;;
11998;SDS011;40817;51.520;9.954;2024-01-30T00:14:33;6.43;;;4.07;;
11998;SDS011;40817;51.520;9.954;2024-01-30T00:17:01;7.65;;;4.38;;
11998;SDS011;40817;51.520;9.954;2024-01-30T00:19:28;6.40;;;3.92;;
11998;SDS011;40817;51.520;9.954;2024-01-30T00:21:57;8.95;;;3.63;;
11998;SDS011;40817;51.520;9.954;2024-01-30T00:24:24;6.95;;;4.50;;
11998;SDS011;40817;51.520;9.954;2024-01-30T00:26:51;10.43;;;5.03;;
11998;SDS011;40817;51.520;9.954;2024-01-30T00:29:18;10.02;;;5.72;;
11998;SDS011;40817;51.520;9.954;2024-01-30T00:31:47;7.30;;;4.38;;
11998;SDS011;40817;51.520;9.954;2024-01-30T00:34:15;8.00;;;4.45;;
11998;SDS011;40817;51.520;9.954;2024-01-30T00:36:42;7.65;;;5.00;;
11998;SDS011;40817;51.520;9.954;2024-01-30T00:39:10;8.50;;;4.80;;
11998;SDS011;40817;51.520;9.954;2024-01-30T00:41:40;7.38;;;4.30;;
11998;SDS011;40817;51.520;9.954;2024-01-30T00:44:08;7.53;;;4.40;;
11998;SDS011;40817;51.520;9.954;2024-01-30T00:46:35;7.40;;;4.18;;
11998;SDS011;40817;51.520;9.954;2024-01-30T00:49:02;7.38;;;4.55;;
11998;SDS011;40817;51.520;9.954;2024-01-30T00:51:29;8.48;;;4.00;;
11998;SDS011;40817;51.520;9.954;2024-01-30T00:53:57;5.80;;;4.15;;
11998;SDS011;40817;51.520;9.954;2024-01-30T00:56:25;10.77;;;6.00;;
11998;SDS011;40817;51.520;9.954;2024-01-30T00:58:53;8.95;;;5.38;;
11998;SDS011;40817;51.520;9.954;2024-01-30T01:01:20;10.95;;;6.82;;
11998;SDS011;40817;51.520;9.954;2024-01-30T01:03:48;10.93;;;5.90;;
11998;SDS011;40817;51.520;9.954;2024-01-30T01:06:15;9.95;;;5.57;;
11998;SDS011;40817;51.520;9.954;2024-01-30T01:08:42;8.70;;;5.82;;
11998;SDS011;40817;51.520;9.954;2024-01-30T01:11:10;11.60;;;6.00;;
11998;SDS011;40817;51.520;9.954;2024-01-30T01:13:38;10.50;;;6.20;;
11998;SDS011;40817;51.520;9.954;2024-01-30T01:16:06;9.70;;;5.40;;
11998;SDS011;40817;51.520;9.954;2024-01-30T01:18:33;10.82;;;5.53;;
11998;SDS011;40817;51.520;9.954;2024-01-30T01:21:00;12.15;;;5.40;;
11998;SDS011;40817;51.520;9.954;2024-01-30T01:23:27;8.00;;;5.47;;
11998;SDS011;40817;51.520;9.954;2024-01-30T01:25:55;10.35;;;6.20;;
11998;SDS011;40817;51.520;9.954;2024-01-30T01:28:24;10.40;;;6.53;;
11998;SDS011;40817;51.520;9.954;2024-01-30T01:30:53;9.70;;;5.95;;
11998;SDS011;40817;51.520;9.954;2024-01-30T01:33:24;10.48;;;6.38;;
11998;SDS011;40817;51.520;9.954;2024-01-30T01:35:51;9.45;;;6.03;;
11998;SDS011;40817;51.520;9.954;2024-01-30T01:38:18;10.57;;;5.85;;
11998;SDS011;40817;51.520;9.954;2024-01-30T01:40:45;7.85;;;5.68;;
11998;SDS011;40817;51.520;9.954;2024-01-30T01:43:13;10.05;;;6.28;;
11998;SDS011;40817;51.520;9.954;2024-01-30T01:45:40;8.15;;;5.55;;
11998;SDS011;40817;51.520;9.954;2024-01-30T01:48:09;9.10;;;5.95;;
11998;SDS011;40817;51.520;9.954;2024-01-30T01:50:36;9.02;;;6.00;;
11998;SDS011;40817;51.520;9.954;2024-01-30T01:53:05;10.85;;;5.63;;
11998;SDS011;40817;51.520;9.954;2024-01-30T01:55:34;9.43;;;5.65;;
11998;SDS011;40817;51.520;9.954;2024-01-30T01:58:03;16.02;;;5.78;;
11998;SDS011;40817;51.520;9.954;2024-01-30T02:00:31;12.85;;;6.20;;
11998;SDS011;40817;51.520;9.954;2024-01-30T02:02:59;8.75;;;5.72;;
11998;SDS011;40817;51.520;9.954;2024-01-30T02:05:30;10.20;;;5.60;;
11998;SDS011;40817;51.520;9.954;2024-01-30T02:07:57;8.05;;;5.38;;
11998;SDS011;40817;51.520;9.954;2024-01-30T02:10:25;8.65;;;5.30;;
11998;SDS011;40817;51.520;9.954;2024-01-30T02:12:52;10.40;;;5.25;;
11998;SDS011;40817;51.520;9.954;2024-01-30T02:15:19;10.18;;;5.80;;
11998;SDS011;40817;51.520;9.954;2024-01-30T02:17:47;8.88;;;5.32;;
11998;SDS011;40817;51.520;9.954;2024-01-30T02:20:14;8.68;;;5.32;;
11998;SDS011;40817;51.520;9.954;2024-01-30T02:22:43;9.10;;;5.25;;
11998;SDS011;40817;51.520;9.954;2024-01-30T02:25:11;8.43;;;5.43;;
11998;SDS011;40817;51.520;9.954;2024-01-30T02:27:38;8.13;;;4.85;;
11998;SDS011;40817;51.520;9.954;2024-01-30T02:30:06;7.75;;;5.00;;
11998;SDS011;40817;51.520;9.954;2024-01-30T02:32:34;8.93;;;5.22;;
11998;SDS011;40817;51.520;9.954;2024-01-30T02:35:02;9.82;;;4.97;;
11998;SDS011;40817;51.520;9.954;2024-01-30T02:37:30;8.52;;;5.43;;
11998;SDS011;40817;51.520;9.954;2024-01-30T02:39:59;9.10;;;5.53;;
11998;SDS011;40817;51.520;9.954;2024-01-30T02:42:26;6.70;;;4.53;;
11998;SDS011;40817;51.520;9.954;2024-01-30T02:44:53;8.27;;;4.47;;
11998;SDS011;40817;51.520;9.954;2024-01-30T02:47:20;9.15;;;4.68;;
11998;SDS011;40817;51.520;9.954;2024-01-30T02:49:48;10.82;;;4.55;;
11998;SDS011;40817;51.520;9.954;2024-01-30T02:52:15;9.15;;;5.05;;
11998;SDS011;40817;51.520;9.954;2024-01-30T02:54:42;6.22;;;4.15;;
11998;SDS011;40817;51.520;9.954;2024-01-30T02:57:10;8.50;;;4.63;;
11998;SDS011;40817;51.520;9.954;2024-01-30T02:59:38;9.48;;;4.97;;
11998;SDS011;40817;51.520;9.954;2024-01-30T03:02:05;7.93;;;4.47;;
11998;SDS011;40817;51.520;9.954;2024-01-30T03:04:32;7.88;;;4.63;;
11998;SDS011;40817;51.520;9.954;2024-01-30T03:06:59;6.28;;;4.18;;
11998;SDS011;40817;51.520;9.954;2024-01-30T03:09:27;8.90;;;4.65;;
11998;SDS011;40817;51.520;9.954;2024-01-30T03:11:54;7.90;;;4.30;;
11998;SDS011;40817;51.520;9.954;2024-01-30T03:14:23;7.38;;;4.18;;
11998;SDS011;40817;51.520;9.954;2024-01-30T03:16:50;6.53;;;4.22;;
11998;SDS011;40817;51.520;9.954;2024-01-30T03:19:17;7.43;;;4.03;;
11998;SDS011;40817;51.520;9.954;2024-01-30T03:21:44;7.35;;;4.05;;
11998;SDS011;40817;51.520;9.954;2024-01-30T03:24:12;8.80;;;5.25;;
11998;SDS011;40817;51.520;9.954;2024-01-30T03:26:39;7.55;;;4.97;;
11998;SDS011;40817;51.520;9.954;2024-01-30T03:29:06;7.78;;;4.30;;
11998;SDS011;40817;51.520;9.954;2024-01-30T03:31:35;9.60;;;5.15;;
11998;SDS011;40817;51.520;9.954;2024-01-30T03:34:02;8.55;;;4.70;;
11998;SDS011;40817;51.520;9.954;2024-01-30T03:36:29;9.30;;;4.70;;
11998;SDS011;40817;51.520;9.954;2024-01-30T03:38:58;6.65;;;4.78;;
11998;SDS011;40817;51.520;9.954;2024-01-30T03:41:25;9.63;;;4.88;;
11998;SDS011;40817;51.520;9.954;2024-01-30T03:43:52;6.75;;;4.47;;
11998;SDS011;40817;51.520;9.954;2024-01-30T03:46:19;6.88;;;4.45;;
11998;SDS011;40817;51.520;9.954;2024-01-30T03:48:48;5.90;;;4.00;;
11998;SDS011;40817;51.520;9.954;2024-01-30T03:51:15;7.63;;;4.20;;
11998;SDS011;40817;51.520;9.954;2024-01-30T03:53:43;8.25;;;4.45;;
11998;SDS011;40817;51.520;9.954;2024-01-30T03:56:11;9.15;;;4.50;;
11998;SDS011;40817;51.520;9.954;2024-01-30T03:58:39;6.82;;;4.10;;
11998;SDS011;40817;51.520;9.954;2024-01-30T04:01:06;7.43;;;4.60;;
11998;SDS011;40817;51.520;9.954;2024-01-30T04:03:33;6.70;;;4.13;;
11998;SDS011;40817;51.520;9.954;2024-01-30T04:06:02;8.15;;;4.55;;
11998;SDS011;40817;51.520;9.954;2024-01-30T04:08:30;10.10;;;5.00;;
11998;SDS011;40817;51.520;9.954;2024-01-30T04:10:57;8.52;;;4.45;;
11998;SDS011;40817;51.520;9.954;2024-01-30T04:13:24;9.13;;;4.35;;
11998;SDS011;40817;51.520;9.954;2024-01-30T04:15:52;6.85;;;4.80;;
11998;SDS011;40817;51.520;9.954;2024-01-30T04:18:20;8.40;;;4.50;;
11998;SDS011;40817;51.520;9.954;2024-01-30T04:20:47;6.80;;;4.15;;
11998;SDS011;40817;51.520;9.954;2024-01-30T04:23:16;6.60;;;3.63;;
11998;SDS011;40817;51.520;9.954;2024-01-30T04:25:43;11.85;;;5.03;;
11998;SDS011;40817;51.520;9.954;2024-01-30T04:28:10;6.55;;;4.50;;
11998;SDS011;40817;51.520;9.954;2024-01-30T04:30:38;8.73;;;5.00;;
11998;SDS011;40817;51.520;9.954;2024-01-30T04:33:05;7.55;;;4.68;;
11998;SDS011;40817;51.520;9.954;2024-01-30T04:35:32;7.82;;;4.28;;
11998;SDS011;40817;51.520;9.954;2024-01-30T04:38:00;10.88;;;4.70;;
11998;SDS011;40817;51.520;9.954;2024-01-30T04:40:28;8.68;;;5.53;;
11998;SDS011;40817;51.520;9.954;2024-01-30T04:42:55;7.88;;;5.05;;
11998;SDS011;40817;51.520;9.954;2024-01-30T04:45:23;8.20;;;5.18;;
11998;SDS011;40817;51.520;9.954;2024-01-30T04:47:50;8.13;;;4.70;;
11998;SDS011;40817;51.520;9.954;2024-01-30T04:50:17;9.88;;;5.30;;
11998;SDS011;40817;51.520;9.954;2024-01-30T04:52:44;8.35;;;5.10;;
11998;SDS011;40817;51.520;9.954;2024-01-30T04:55:12;8.07;;;4.93;;
11998;SDS011;40817;51.520;9.954;2024-01-30T04:57:40;8.25;;;4.32;;
11998;SDS011;40817;51.520;9.954;2024-01-30T05:00:08;7.05;;;5.18;;
11998;SDS011;40817;51.520;9.954;2024-01-30T05:02:37;8.75;;;4.80;;
11998;SDS011;40817;51.520;9.954;2024-01-30T05:05:05;7.57;;;4.75;;
11998;SDS011;40817;51.520;9.954;2024-01-30T05:07:33;9.65;;;5.13;;
11998;SDS011;40817;51.520;9.954;2024-01-30T05:10:00;6.90;;;4.82;;
11998;SDS011;40817;51.520;9.954;2024-01-30T05:12:28;10.70;;;4.93;;
11998;SDS011;40817;51.520;9.954;2024-01-30T05:14:56;8.48;;;4.97;;
11998;SDS011;40817;51.520;9.954;2024-01-30T05:17:24;8.98;;;5.68;;
11998;SDS011;40817;51.520;9.954;2024-01-30T05:19:51;8.50;;;5.32;;
11998;SDS011;40817;51.520;9.954;2024-01-30T05:22:18;7.68;;;5.50;;
11998;SDS011;40817;51.520;9.954;2024-01-30T05:24:45;12.10;;;5.13;;
11998;SDS011;40817;51.520;9.954;2024-01-30T05:27:13;11.18;;;5.57;;
11998;SDS011;40817;51.520;9.954;2024-01-30T05:29:40;8.18;;;5.20;;
11998;SDS011;40817;51.520;9.954;2024-01-30T05:32:08;8.82;;;4.88;;
11998;SDS011;40817;51.520;9.954;2024-01-30T05:34:36;10.23;;;4.95;;
11998;SDS011;40817;51.520;9.954;2024-01-30T05:37:03;11.82;;;5.72;;
11998;SDS011;40817;51.520;9.954;2024-01-30T05:39:31;8.25;;;5.05;;
11998;SDS011;40817;51.520;9.954;2024-01-30T05:41:58;7.40;;;4.82;;
11998;SDS011;40817;51.520;9.954;2024-01-30T05:44:26;10.85;;;4.97;;
11998;SDS011;40817;51.520;9.954;2024-01-30T05:46:53;10.05;;;5.45;;
11998;SDS011;40817;51.520;9.954;2024-01-30T05:49:21;8.65;;;5.35;;
11998;SDS011;40817;51.520;9.954;2024-01-30T05:51:49;8.75;;;5.25;;
11998;SDS011;40817;51.520;9.954;2024-01-30T05:54:16;9.10;;;5.47;;
11998;SDS011;40817;51.520;9.954;2024-01-30T05:56:43;12.15;;;5.40;;
11998;SDS011;40817;51.520;9.954;2024-01-30T05:59:10;7.85;;;5.20;;
11998;SDS011;40817;51.520;9.954;2024-01-30T06:01:38;7.93;;;4.70;;
11998;SDS011;40817;51.520;9.954;2024-01-30T06:04:11;7.13;;;4.53;;
11998;SDS011;40817;51.520;9.954;2024-01-30T06:06:40;8.15;;;4.72;;
11998;SDS011;40817;51.520;9.954;2024-01-30T06:09:07;8.57;;;5.03;;
11998;SDS011;40817;51.520;9.954;2024-01-30T06:11:35;8.18;;;4.88;;
11998;SDS011;40817;51.520;9.954;2024-01-30T06:14:02;6.72;;;4.63;;
11998;SDS011;40817;51.520;9.954;2024-01-30T06:16:29;8.27;;;5.05;;
11998;SDS011;40817;51.520;9.954;2024-01-30T06:18:56;9.35;;;4.88;;
11998;SDS011;40817;51.520;9.954;2024-01-30T06:21:24;9.32;;;5.43;;
11998;SDS011;40817;51.520;9.954;2024-01-30T06:23:53;11.07;;;5.93;;
11998;SDS011;40817;51.520;9.954;2024-01-30T06:26:20;10.13;;;4.85;;
11998;SDS011;40817;51.520;9.954;2024-01-30T06:28:48;8.52;;;5.35;;
11998;SDS011;40817;51.520;9.954;2024-01-30T06:31:15;7.80;;;4.95;;
11998;SDS011;40817;51.520;9.954;2024-01-30T06:33:42;9.25;;;5.85;;
11998;SDS011;40817;51.520;9.954;2024-01-30T06:36:09;9.85;;;5.75;;
11998;SDS011;40817;51.520;9.954;2024-01-30T06:38:36;8.57;;;5.18;;
11998;SDS011;40817;51.520;9.954;2024-01-30T06:41:05;10.35;;;5.90;;
11998;SDS011;40817;51.520;9.954;2024-01-30T06:43:32;8.52;;;5.60;;
11998;SDS011;40817;51.520;9.954;2024-01-30T06:46:00;9.25;;;5.60;;
11998;SDS011;40817;51.520;9.954;2024-01-30T06:48:27;9.10;;;6.22;;
11998;SDS011;40817;51.520;9.954;2024-01-30T06:50:55;10.18;;;6.38;;
11998;SDS011;40817;51.520;9.954;2024-01-30T06:53:23;11.05;;;5.95;;
11998;SDS011;40817;51.520;9.954;2024-01-30T06:55:51;8.60;;;5.75;;
11998;SDS011;40817;51.520;9.954;2024-01-30T06:58:20;11.45;;;5.78;;
11998;SDS011;40817;51.520;9.954;2024-01-30T07:00:47;10.40;;;6.18;;
11998;SDS011;40817;51.520;9.954;2024-01-30T07:03:14;8.52;;;5.47;;
11998;SDS011;40817;51.520;9.954;2024-01-30T07:05:41;9.30;;;5.53;;
11998;SDS011;40817;51.520;9.954;2024-01-30T07:08:09;11.73;;;6.38;;
11998;SDS011;40817;51.520;9.954;2024-01-30T07:10:36;11.23;;;5.45;;
11998;SDS011;40817;51.520;9.954;2024-01-30T07:13:03;8.73;;;5.20;;
11998;SDS011;40817;51.520;9.954;2024-01-30T07:15:32;9.80;;;5.78;;
11998;SDS011;40817;51.520;9.954;2024-01-30T07:17:59;8.88;;;6.18;;
11998;SDS011;40817;51.520;9.954;2024-01-30T07:20:27;11.05;;;5.60;;
11998;SDS011;40817;51.520;9.954;2024-01-30T07:22:56;11.27;;;6.05;;
11998;SDS011;40817;51.520;9.954;2024-01-30T07:25:23;14.15;;;5.57;;
11998;SDS011;40817;51.520;9.954;2024-01-30T07:27:51;11.80;;;5.95;;
11998;SDS011;40817;51.520;9.954;2024-01-30T07:30:19;12.13;;;6.30;;
11998;SDS011;40817;51.520;9.954;2024-01-30T07:32:48;8.30;;;5.43;;
11998;SDS011;40817;51.520;9.954;2024-01-30T07:35:16;11.35;;;6.13;;
11998;SDS011;40817;51.520;9.954;2024-01-30T07:37:43;13.95;;;6.50;;
11998;SDS011;40817;51.520;9.954;2024-01-30T07:40:10;12.13;;;6.07;;
11998;SDS011;40817;51.520;9.954;2024-01-30T07:42:38;9.52;;;5.82;;
11998;SDS011;40817;51.520;9.954;2024-01-30T07:45:06;10.25;;;5.93;;
11998;SDS011;40817;51.520;9.954;2024-01-30T07:47:34;9.48;;;5.40;;
11998;SDS011;40817;51.520;9.954;2024-01-30T07:50:03;7.25;;;5.07;;
11998;SDS011;40817;51.520;9.954;2024-01-30T07:52:32;8.50;;;5.35;;
11998;SDS011;40817;51.520;9.954;2024-01-30T07:54:59;11.23;;;5.07;;
11998;SDS011;40817;51.520;9.954;2024-01-30T07:57:26;9.55;;;5.50;;
11998;SDS011;40817;51.520;9.954;2024-01-30T07:59:53;12.68;;;4.97;;
11998;SDS011;40817;51.520;9.954;2024-01-30T08:02:22;11.00;;;5.63;;
11998;SDS011;40817;51.520;9.954;2024-01-30T08:04:49;9.70;;;5.28;;
11998;SDS011;40817;51.520;9.954;2024-01-30T08:07:18;9.02;;;5.40;;
11998;SDS011;40817;51.520;9.954;2024-01-30T08:09:47;11.43;;;5.70;;
11998;SDS011;40817;51.520;9.954;2024-01-30T08:12:14;9.80;;;5.28;;
11998;SDS011;40817;51.520;9.954;2024-01-30T08:14:42;10.52;;;5.32;;
11998;SDS011;40817;51.520;9.954;2024-01-30T08:17:09;8.05;;;5.13;;
11998;SDS011;40817;51.520;9.954;2024-01-30T08:19:36;7.45;;;4.93;;
11998;SDS011;40817;51.520;9.954;2024-01-30T08:22:03;8.45;;;4.85;;
11998;SDS011;40817;51.520;9.954;2024-01-30T08:24:32;8.25;;;5.00;;
11998;SDS011;40817;51.520;9.954;2024-01-30T08:26:59;10.15;;;6.05;;
11998;SDS011;40817;51.520;9.954;2024-01-30T08:29:27;11.68;;;5.57;;
11998;SDS011;40817;51.520;9.954;2024-01-30T08:31:55;11.05;;;5.60;;
11998;SDS011;40817;51.520;9.954;2024-01-30T08:34:24;8.38;;;5.20;;
11998;SDS011;40817;51.520;9.954;2024-01-30T08:36:51;11.50;;;5.70;;
11998;SDS011;40817;51.520;9.954;2024-01-30T08:39:18;9.23;;;5.47;;
11998;SDS011;40817;51.520;9.954;2024-01-30T08:41:47;9.63;;;5.63;;
11998;SDS011;40817;51.520;9.954;2024-01-30T08:44:14;8.68;;;5.10;;
11998;SDS011;40817;51.520;9.954;2024-01-30T08:46:42;10.45;;;5.53;;
11998;SDS011;40817;51.520;9.954;2024-01-30T08:49:10;9.57;;;5.75;;
11998;SDS011;40817;51.520;9.954;2024-01-30T08:51:38;9.68;;;6.10;;
11998;SDS011;40817;51.520;9.954;2024-01-30T08:54:05;9.82;;;5.78;;
11998;SDS011;40817;51.520;9.954;2024-01-30T08:56:32;9.43;;;5.60;;
11998;SDS011;40817;51.520;9.954;2024-01-30T08:59:01;9.93;;;6.18;;
11998;SDS011;40817;51.520;9.954;2024-01-30T09:01:28;10.27;;;6.22;;
11998;SDS011;40817;51.520;9.954;2024-01-30T09:03:55;9.82;;;5.25;;
11998;SDS011;40817;51.520;9.954;2024-01-30T09:06:23;8.73;;;5.80;;
11998;SDS011;40817;51.520;9.954;2024-01-30T09:08:51;10.50;;;6.38;;
11998;SDS011;40817;51.520;9.954;2024-01-30T09:11:19;8.73;;;5.60;;
11998;SDS011;40817;51.520;9.954;2024-01-30T09:13:46;9.18;;;5.30;;
11998;SDS011;40817;51.520;9.954;2024-01-30T09:16:14;9.65;;;5.22;;
11998;SDS011;40817;51.520;9.954;2024-01-30T09:18:42;7.97;;;5.03;;
11998;SDS011;40817;51.520;9.954;2024-01-30T09:21:09;9.85;;;5.75;;
11998;SDS011;40817;51.520;9.954;2024-01-30T09:23:37;7.78;;;4.82;;
11998;SDS011;40817;51.520;9.954;2024-01-30T09:26:04;13.43;;;5.85;;
11998;SDS011;40817;51.520;9.954;2024-01-30T09:28:31;8.43;;;5.38;;
11998;SDS011;40817;51.520;9.954;2024-01-30T09:30:58;10.90;;;5.85;;
11998;SDS011;40817;51.520;9.954;2024-01-30T09:33:27;9.70;;;5.40;;
11998;SDS011;40817;51.520;9.954;2024-01-30T09:35:54;9.25;;;5.38;;
11998;SDS011;40817;51.520;9.954;2024-01-30T09:38:21;7.70;;;5.32;;
11998;SDS011;40817;51.520;9.954;2024-01-30T09:40:54;9.32;;;5.00;;
11998;SDS011;40817;51.520;9.954;2024-01-30T09:43:22;7.15;;;5.43;;
11998;SDS011;40817;51.520;9.954;2024-01-30T09:45:50;10.18;;;5.68;;
11998;SDS011;40817;51.520;9.954;2024-01-30T09:48:19;8.93;;;5.13;;
11998;SDS011;40817;51.520;9.954;2024-01-30T09:50:48;8.75;;;5.35;;
11998;SDS011;40817;51.520;9.954;2024-01-30T09:53:16;7.97;;;5.57;;
11998;SDS011;40817;51.520;9.954;2024-01-30T09:55:43;10.95;;;5.50;;
11998;SDS011;40817;51.520;9.954;2024-01-30T09:58:11;9.82;;;5.32;;
11998;SDS011;40817;51.520;9.954;2024-01-30T10:00:39;10.52;;;5.28;;
11998;SDS011;40817;51.520;9.954;2024-01-30T10:03:06;10.68;;;6.18;;
11998;SDS011;40817;51.520;9.954;2024-01-30T10:05:34;9.48;;;5.85;;
11998;SDS011;40817;51.520;9.954;2024-01-30T10:08:07;9.13;;;6.30;;
11998;SDS011;40817;51.520;9.954;2024-01-30T10:10:34;10.23;;;6.03;;
11998;SDS011;40817;51.520;9.954;2024-01-30T10:13:01;9.02;;;5.47;;
11998;SDS011;40817;51.520;9.954;2024-01-30T10:15:29;9.35;;;5.25;;
11998;SDS011;40817;51.520;9.954;2024-01-30T10:17:57;11.77;;;5.63;;
11998;SDS011;40817;51.520;9.954;2024-01-30T10:20:24;10.27;;;5.85;;
11998;SDS011;40817;51.520;9.954;2024-01-30T10:22:52;9.88;;;5.88;;
11998;SDS011;40817;51.520;9.954;2024-01-30T10:25:22;11.75;;;6.22;;
11998;SDS011;40817;51.520;9.954;2024-01-30T10:27:52;9.02;;;6.10;;
11998;SDS011;40817;51.520;9.954;2024-01-30T10:30:20;11.23;;;5.95;;
11998;SDS011;40817;51.520;9.954;2024-01-30T10:32:48;9.85;;;5.60;;
11998;SDS011;40817;51.520;9.954;2024-01-30T10:35:16;11.20;;;5.95;;
11998;SDS011;40817;51.520;9.954;2024-01-30T10:37:43;9.07;;;5.38;;
11998;SDS011;40817;51.520;9.954;2024-01-30T10:40:13;10.13;;;5.93;;
11998;SDS011;40817;51.520;9.954;2024-01-30T10:42:45;10.07;;;5.93;;
11998;SDS011;40817;51.520;9.954;2024-01-30T10:45:12;10.82;;;5.90;;
11998;SDS011;40817;51.520;9.954;2024-01-30T10:47:41;8.15;;;5.15;;
11998;SDS011;40817;51.520;9.954;2024-01-30T10:50:14;8.52;;;5.10;;
11998;SDS011;40817;51.520;9.954;2024-01-30T10:52:42;11.43;;;5.60;;
11998;SDS011;40817;51.520;9.954;2024-01-30T10:55:11;9.70;;;5.72;;
11998;SDS011;40817;51.520;9.954;2024-01-30T10:57:38;7.82;;;5.50;;
11998;SDS011;40817;51.520;9.954;2024-01-30T11:00:08;8.80;;;5.35;;
11998;SDS011;40817;51.520;9.954;2024-01-30T11:02:39;10.75;;;5.53;;
11998;SDS011;40817;51.520;9.954;2024-01-30T11:05:09;9.32;;;5.10;;
11998;SDS011;40817;51.520;9.954;2024-01-30T11:07:38;7.78;;;5.00;;
11998;SDS011;40817;51.520;9.954;2024-01-30T11:10:06;7.35;;;4.78;;
11998;SDS011;40817;51.520;9.954;2024-01-30T11:12:38;10.43;;;5.57;;
11998;SDS011;40817;51.520;9.954;2024-01-30T11:15:10;10.02;;;5.57;;
11998;SDS011;40817;51.520;9.954;2024-01-30T11:17:40;8.65;;;4.97;;
11998;SDS011;40817;51.520;9.954;2024-01-30T11:20:19;11.15;;;5.00;;
11998;SDS011;40817;51.520;9.954;2024-01-30T11:22:49;8.38;;;5.38;;
11998;SDS011;40817;51.520;9.954;2024-01-30T11:25:19;10.25;;;5.30;;
11998;SDS011;40817;51.520;9.954;2024-01-30T11:27:49;11.60;;;5.53;;
11998;SDS011;40817;51.520;9.954;2024-01-30T11:30:22;8.93;;;6.05;;
11998;SDS011;40817;51.520;9.954;2024-01-30T11:32:58;7.63;;;5.20;;
11998;SDS011;40817;51.520;9.954;2024-01-30T11:35:31;13.50;;;5.60;;
11998;SDS011;40817;51.520;9.954;2024-01-30T11:38:00;10.80;;;5.90;;
11998;SDS011;40817;51.520;9.954;2024-01-30T11:40:29;10.02;;;4.82;;
11998;SDS011;40817;51.520;9.954;2024-01-30T11:42:58;9.32;;;5.53;;
11998;SDS011;40817;51.520;9.954;2024-01-30T11:45:29;11.52;;;5.13;;
11998;SDS011;40817;51.520;9.954;2024-01-30T11:47:58;11.07;;;5.13;;
11998;SDS011;40817;51.520;9.954;2024-01-30T11:50:28;8.50;;;5.15;;
11998;SDS011;40817;51.520;9.954;2024-01-30T11:52:56;7.55;;;4.53;;
11998;SDS011;40817;51.520;9.954;2024-01-30T11:55:24;8.27;;;5.43;;
11998;SDS011;40817;51.520;9.954;2024-01-30T11:57:54;7.20;;;4.82;;
11998;SDS011;40817;51.520;9.954;2024-01-30T12:00:22;10.15;;;4.95;;
11998;SDS011;40817;51.520;9.954;2024-01-30T12:02:51;10.10;;;5.25;;
11998;SDS011;40817;51.520;9.954;2024-01-30T12:05:22;9.65;;;5.28;;
11998;SDS011;40817;51.520;9.954;2024-01-30T12:07:49;11.05;;;5.40;;
11998;SDS011;40817;51.520;9.954;2024-01-30T12:10:17;7.13;;;4.63;;
11998;SDS011;40817;51.520;9.954;2024-01-30T12:12:45;7.47;;;4.65;;
11998;SDS011;40817;51.520;9.954;2024-01-30T12:15:15;9.70;;;5.05;;
11998;SDS011;40817;51.520;9.954;2024-01-30T12:17:47;8.25;;;4.95;;
11998;SDS011;40817;51.520;9.954;2024-01-30T12:20:17;7.70;;;5.38;;
11998;SDS011;40817;51.520;9.954;2024-01-30T12:22:47;8.65;;;5.68;;
11998;SDS011;40817;51.520;9.954;2024-01-30T12:25:16;6.55;;;4.55;;
11998;SDS011;40817;51.520;9.954;2024-01-30T12:27:48;9.38;;;5.68;;
11998;SDS011;40817;51.520;9.954;2024-01-30T12:30:17;8.90;;;5.45;;
11998;SDS011;40817;51.520;9.954;2024-01-30T12:32:46;10.80;;;5.15;;
11998;SDS011;40817;51.520;9.954;2024-01-30T12:35:18;11.27;;;6.25;;
11998;SDS011;40817;51.520;9.954;2024-01-30T12:37:47;10.35;;;5.30;;
11998;SDS011;40817;51.520;9.954;2024-01-30T12:40:15;11.45;;;5.32;;
11998;SDS011;40817;51.520;9.954;2024-01-30T12:42:45;10.23;;;4.82;;
11998;SDS011;40817;51.520;9.954;2024-01-30T12:45:15;8.70;;;4.60;;
11998;SDS011;40817;51.520;9.954;2024-01-30T12:47:45;8.52;;;4.15;;
11998;SDS011;40817;51.520;9.954;2024-01-30T12:50:12;7.40;;;4.80;;
11998;SDS011;40817;51.520;9.954;2024-01-30T12:52:42;7.65;;;5.18;;
11998;SDS011;40817;51.520;9.954;2024-01-30T12:55:10;6.53;;;4.55;;
11998;SDS011;40817;51.520;9.954;2024-01-30T12:57:38;8.07;;;4.75;;
11998;SDS011;40817;51.520;9.954;2024-01-30T13:00:06;11.27;;;5.15;;
11998;SDS011;40817;51.520;9.954;2024-01-30T13:02:37;10.38;;;4.78;;
11998;SDS011;40817;51.520;9.954;2024-01-30T13:05:04;7.47;;;4.85;;
11998;SDS011;40817;51.520;9.954;2024-01-30T13:07:32;8.77;;;5.30;;
11998;SDS011;40817;51.520;9.954;2024-01-30T13:10:02;8.80;;;4.80;;
11998;SDS011;40817;51.520;9.954;2024-01-30T13:12:30;8.50;;;5.38;;
11998;SDS011;40817;51.520;9.954;2024-01-30T13:14:58;7.55;;;5.20;;
11998;SDS011;40817;51.520;9.954;2024-01-30T13:17:26;7.70;;;4.88;;
11998;SDS011;40817;51.520;9.954;2024-01-30T13:19:53;9.95;;;5.05;;
11998;SDS011;40817;51.520;9.954;2024-01-30T13:22:21;9.45;;;5.20;;
11998;SDS011;40817;51.520;9.954;2024-01-30T13:24:48;7.70;;;5.55;;
11998;SDS011;40817;51.520;9.954;2024-01-30T13:27:16;10.05;;;5.45;;
11998;SDS011;40817;51.520;9.954;2024-01-30T13:29:44;7.38;;;4.53;;
11998;SDS011;40817;51.520;9.954;2024-01-30T13:32:11;7.85;;;4.60;;
11998;SDS011;40817;51.520;9.954;2024-01-30T13:34:39;8.00;;;4.57;;
11998;SDS011;40817;51.520;9.954;2024-01-30T13:37:06;7.65;;;4.47;;
11998;SDS011;40817;51.520;9.954;2024-01-30T13:39:33;7.20;;;4.53;;
11998;SDS011;40817;51.520;9.954;2024-01-30T13:42:00;7.03;;;4.63;;
11998;SDS011;40817;51.520;9.954;2024-01-30T13:44:29;7.95;;;5.00;;
11998;SDS011;40817;51.520;9.954;2024-01-30T13:46:56;12.98;;;5.38;;
11998;SDS011;40817;51.520;9.954;2024-01-30T13:49:24;7.10;;;4.50;;
11998;SDS011;40817;51.520;9.954;2024-01-30T13:51:52;6.25;;;4.13;;
11998;SDS011;40817;51.520;9.954;2024-01-30T13:54:19;8.23;;;4.57;;
11998;SDS011;40817;51.520;9.954;2024-01-30T13:56:46;7.53;;;4.32;;
11998;SDS011;40817;51.520;9.954;2024-01-30T13:59:14;6.70;;;4.30;;
11998;SDS011;40817;51.520;9.954;2024-01-30T14:01:49;6.78;;;4.38;;
11998;SDS011;40817;51.520;9.954;2024-01-30T14:04:17;8.60;;;4.30;;
11998;SDS011;40817;51.520;9.954;2024-01-30T14:06:44;7.85;;;4.65;;
11998;SDS011;40817;51.520;9.954;2024-01-30T14:09:11;7.40;;;4.35;;
11998;SDS011;40817;51.520;9.954;2024-01-30T14:11:40;10.65;;;4.25;;
11998;SDS011;40817;51.520;9.954;2024-01-30T14:14:08;9.25;;;4.88;;
11998;SDS011;40817;51.520;9.954;2024-01-30T14:16:36;7.85;;;3.65;;
11998;SDS011;40817;51.520;9.954;2024-01-30T14:19:04;7.95;;;4.40;;
11998;SDS011;40817;51.520;9.954;2024-01-30T14:21:32;5.88;;;3.97;;
11998;SDS011;40817;51.520;9.954;2024-01-30T14:23:59;6.60;;;4.07;;
11998;SDS011;40817;51.520;9.954;2024-01-30T14:26:26;8.35;;;4.63;;
11998;SDS011;40817;51.520;9.954;2024-01-30T14:28:53;5.85;;;3.63;;
11998;SDS011;40817;51.520;9.954;2024-01-30T14:31:21;9.05;;;4.60;;
11998;SDS011;40817;51.520;9.954;2024-01-30T14:33:49;13.65;;;4.60;;
11998;SDS011;40817;51.520;9.954;2024-01-30T14:36:18;7.50;;;4.15;;
11998;SDS011;40817;51.520;9.954;2024-01-30T14:38:45;9.30;;;5.00;;
11998;SDS011;40817;51.520;9.954;2024-01-30T14:41:12;8.65;;;4.78;;
11998;SDS011;40817;51.520;9.954;2024-01-30T14:43:40;7.57;;;4.85;;
11998;SDS011;40817;51.520;9.954;2024-01-30T14:46:07;6.05;;;4.20;;
11998;SDS011;40817;51.520;9.954;2024-01-30T14:48:35;8.63;;;4.57;;